createdAt,value
2019-04-14T00:01:36.970Z,21.30
2019-04-14T00:05:42.920Z,21.00
2019-04-14T00:09:47.888Z,22.63
2019-04-14T00:13:52.805Z,21.00
2019-04-14T00:17:58.874Z,22.33
2019-04-14T00:22:05.164Z,22.27
2019-04-14T00:26:27.494Z,20.73
2019-04-14T00:30:33.544Z,21.17
2019-04-14T00:34:40.315Z,22.17
2019-04-14T00:38:47.810Z,22.23
2019-04-14T00:42:54.392Z,23.43
2019-04-14T00:47:16.212Z,23.37
2019-04-14T00:51:22.084Z,22.70
2019-04-14T00:55:27.172Z,22.47
2019-04-14T00:59:33.170Z,23.07
2019-04-14T01:03:39.378Z,24.60
2019-04-14T01:07:45.494Z,25.47
2019-04-14T01:11:51.013Z,25.87
2019-04-14T01:16:03.787Z,24.83
2019-04-14T01:20:03.626Z,24.33
2019-04-14T01:24:09.638Z,25.20
2019-04-14T01:28:15.736Z,25.83
2019-04-14T01:32:21.824Z,27.40
2019-04-14T01:36:27.694Z,25.13
2019-04-14T01:40:33.720Z,26.10
2019-04-14T01:44:39.576Z,28.20
2019-04-14T01:48:45.394Z,25.13
2019-04-14T01:53:07.566Z,24.43
2019-04-14T01:57:17.585Z,25.93
2019-04-14T02:01:24.141Z,25.50
2019-04-14T02:05:29.976Z,26.63
2019-04-14T02:09:35.765Z,24.87
2019-04-14T02:13:42.110Z,27.40
2019-04-14T02:17:48.160Z,27.97
2019-04-14T02:21:54.124Z,27.10
2019-04-14T02:26:00.109Z,26.17
2019-04-14T02:30:10.195Z,28.93
2019-04-14T02:34:43.791Z,27.43
2019-04-14T02:42:54.164Z,28.57
2019-04-14T02:47:09.824Z,28.57
2019-04-14T02:55:08.520Z,26.97
2019-04-14T02:59:41.598Z,26.33
2019-04-14T03:03:33.995Z,26.60
2019-04-14T03:07:37.907Z,27.40
2019-04-14T03:11:38.035Z,26.33
2019-04-14T03:15:48.178Z,26.03
2019-04-14T03:20:09.422Z,27.40
2019-04-14T03:24:13.125Z,26.27
2019-04-14T03:28:37.861Z,29.40
2019-04-14T03:32:53.185Z,29.60
2019-04-14T03:44:54.539Z,27.47
2019-04-14T03:48:58.524Z,30.33
2019-04-14T03:53:17.513Z,28.03
2019-04-14T03:56:53.866Z,25.07
2019-04-14T04:00:59.757Z,28.17
2019-04-14T04:05:06.459Z,27.40
2019-04-14T04:09:12.486Z,27.30
2019-04-14T04:13:17.530Z,28.43
2019-04-14T04:17:27.587Z,28.83
2019-04-14T04:21:46.638Z,27.80
2019-04-14T04:26:10.448Z,24.63
2019-04-14T04:30:17.075Z,27.27
2019-04-14T04:34:27.205Z,24.97
2019-04-14T04:38:37.519Z,23.67
2019-04-14T04:42:43.646Z,23.77
2019-04-14T04:46:48.567Z,26.23
2019-04-14T04:50:54.221Z,23.50
2019-04-14T04:55:00.265Z,20.83
2019-04-14T04:59:05.433Z,24.87
2019-04-14T05:03:10.434Z,23.50
2019-04-14T05:07:16.551Z,23.17
2019-04-14T05:11:40.408Z,21.17
2019-04-14T05:15:46.976Z,21.27
2019-04-14T05:19:51.993Z,19.63
2019-04-14T05:23:58.052Z,22.67
2019-04-14T05:28:03.098Z,19.33
2019-04-14T05:32:08.813Z,19.83
2019-04-14T05:36:14.936Z,18.40
2019-04-14T05:40:20.959Z,20.70
2019-04-14T05:44:26.068Z,19.63
2019-04-14T05:48:31.467Z,18.33
2019-04-14T05:52:36.380Z,18.07
2019-04-14T05:56:42.499Z,19.00
2019-04-14T06:00:48.141Z,17.63
2019-04-14T06:04:53.055Z,17.27
2019-04-14T06:08:57.971Z,14.87
2019-04-14T06:13:02.876Z,16.33
2019-04-14T06:17:07.772Z,16.13
2019-04-14T06:21:12.698Z,14.97
2019-04-14T06:25:17.619Z,16.83
2019-04-14T06:29:22.516Z,16.00
2019-04-14T06:33:38.275Z,16.03
2019-04-14T06:37:48.989Z,17.17
2019-04-14T06:41:53.886Z,15.17
2019-04-14T06:45:58.796Z,15.53
2019-04-14T06:50:04.380Z,15.77
2019-04-14T06:54:09.301Z,16.43
2019-04-14T06:58:14.207Z,14.47
2019-04-14T07:02:20.089Z,16.70
2019-04-14T07:06:25.017Z,14.30
2019-04-14T07:10:29.926Z,15.77
2019-04-14T07:14:34.836Z,13.17
2019-04-14T07:18:39.730Z,15.80
2019-04-14T07:22:44.648Z,14.90
2019-04-14T07:26:49.572Z,15.83
2019-04-14T07:31:05.171Z,14.27
2019-04-14T07:35:11.726Z,15.00
2019-04-14T07:39:34.687Z,15.20
2019-04-14T07:43:57.135Z,17.30
2019-04-14T07:48:07.195Z,15.13
2019-04-14T07:52:22.692Z,14.70
2019-04-14T07:56:39.454Z,14.97
2019-04-14T08:00:48.466Z,16.10
2019-04-14T08:04:55.035Z,13.63
2019-04-14T08:08:59.915Z,13.93
2019-04-14T08:13:05.397Z,13.80
2019-04-14T08:17:10.321Z,15.17
2019-04-14T08:21:15.235Z,14.50
2019-04-14T08:25:20.246Z,14.67
2019-04-14T08:29:25.111Z,14.00
2019-04-14T08:33:30.028Z,15.37
2019-04-14T08:37:34.941Z,14.33
2019-04-14T08:41:41.498Z,15.60
2019-04-14T08:45:53.837Z,13.93
2019-04-14T08:50:09.964Z,13.27
2019-04-14T08:54:25.426Z,14.03
2019-04-14T08:58:31.979Z,13.17
2019-04-14T09:02:54.964Z,14.77
2019-04-14T09:07:01.503Z,12.77
2019-04-14T09:11:08.056Z,13.27
2019-04-14T09:15:13.009Z,12.97
2019-04-14T09:19:17.919Z,12.10
2019-04-14T09:23:22.819Z,12.00
2019-04-14T09:27:27.733Z,12.70
2019-04-14T09:31:32.642Z,12.27
2019-04-14T09:35:37.541Z,13.37
2019-04-14T09:39:43.521Z,13.20
2019-04-14T09:43:48.430Z,13.27
2019-04-14T09:47:53.342Z,12.80
2019-04-14T09:51:58.269Z,12.30
2019-04-14T09:56:03.171Z,12.80
2019-04-14T10:00:08.693Z,12.83
2019-04-14T10:04:13.614Z,12.93
2019-04-14T10:08:18.532Z,13.13
2019-04-14T10:12:23.436Z,14.47
2019-04-14T10:16:28.344Z,13.57
2019-04-14T10:20:33.255Z,12.30
2019-04-14T10:24:38.166Z,12.63
2019-04-14T10:28:43.076Z,12.43
2019-04-14T10:32:47.978Z,11.23
2019-04-14T10:36:53.060Z,11.43
2019-04-14T10:40:57.954Z,12.10
2019-04-14T10:45:02.855Z,13.27
2019-04-14T10:49:07.786Z,12.63
2019-04-14T10:53:12.694Z,11.83
2019-04-14T10:57:17.605Z,11.33
2019-04-14T11:01:22.508Z,12.03
2019-04-14T11:05:30.132Z,11.60
2019-04-14T11:09:35.043Z,11.60
2019-04-14T11:13:39.972Z,11.57
2019-04-14T11:17:44.854Z,10.97
2019-04-14T11:21:49.760Z,12.17
2019-04-14T11:25:54.658Z,11.27
2019-04-14T11:29:59.556Z,10.67
2019-04-14T11:34:04.842Z,10.73
2019-04-14T11:38:14.378Z,11.33
2019-04-14T11:42:19.358Z,11.20
2019-04-14T11:46:24.302Z,10.90
2019-04-14T11:50:29.214Z,9.73
2019-04-14T11:54:34.125Z,11.43
2019-04-14T11:58:39.058Z,11.80
2019-04-14T12:02:54.619Z,11.57
2019-04-14T12:07:17.694Z,10.20
2019-04-14T12:11:22.593Z,10.47
2019-04-14T12:15:27.516Z,11.57
2019-04-14T12:19:32.433Z,10.73
2019-04-14T12:23:37.370Z,10.77
2019-04-14T12:27:42.277Z,11.97
2019-04-14T12:31:48.607Z,11.53
2019-04-14T12:35:53.838Z,14.23
2019-04-14T12:39:58.754Z,13.10
2019-04-14T12:44:13.808Z,11.50
2019-04-14T12:48:20.359Z,13.57
2019-04-14T12:52:26.923Z,11.80
2019-04-14T12:56:31.860Z,12.00
2019-04-14T13:00:41.089Z,13.23
2019-04-14T13:04:46.037Z,12.83
2019-04-14T13:08:50.946Z,14.57
2019-04-14T13:12:55.865Z,11.13
2019-04-14T13:17:00.787Z,11.33
2019-04-14T13:21:05.854Z,11.03
2019-04-14T13:25:11.033Z,11.43
2019-04-14T13:29:16.004Z,10.80
2019-04-14T13:33:20.919Z,11.57
2019-04-14T13:37:25.859Z,11.70
2019-04-14T13:41:30.795Z,12.63
2019-04-14T13:45:35.723Z,10.97
2019-04-14T13:49:40.641Z,12.53
2019-04-14T13:53:45.592Z,10.83
2019-04-14T13:57:51.586Z,11.03
2019-04-14T14:01:56.554Z,10.90
2019-04-14T14:06:01.458Z,11.10
2019-04-14T14:10:08.097Z,11.53
2019-04-14T14:14:14.645Z,10.27
2019-04-14T14:18:26.917Z,9.27
2019-04-14T14:22:59.273Z,9.00
2019-04-14T14:27:01.075Z,10.13
2019-04-14T14:31:06.044Z,8.73
2019-04-14T14:35:11.103Z,9.33
2019-04-14T14:39:17.635Z,8.83
2019-04-14T14:43:22.546Z,8.90
2019-04-14T14:47:29.089Z,7.97
2019-04-14T14:51:44.313Z,7.80
2019-04-14T14:55:49.214Z,7.17
2019-04-14T14:59:54.110Z,7.40
2019-04-14T15:03:59.022Z,8.03
2019-04-14T15:08:04.261Z,7.27
2019-04-14T15:12:09.187Z,7.20
2019-04-14T15:16:14.078Z,7.70
2019-04-14T15:20:20.044Z,7.30
2019-04-14T15:24:25.000Z,6.90
2019-04-14T15:28:29.859Z,8.20
2019-04-14T15:32:34.771Z,7.73
2019-04-14T15:36:39.683Z,7.73
2019-04-14T15:40:44.573Z,7.83
2019-04-14T15:44:49.471Z,6.77
2019-04-14T15:48:55.677Z,8.13
2019-04-14T15:53:00.582Z,9.17
2019-04-14T15:57:07.133Z,9.23
2019-04-14T16:01:13.664Z,9.87
2019-04-14T16:05:24.074Z,14.13
2019-04-14T16:09:36.640Z,9.87
2019-04-14T16:13:48.678Z,10.97
2019-04-14T16:17:55.226Z,10.97
2019-04-14T16:22:00.132Z,11.13
2019-04-14T16:26:06.741Z,10.40
2019-04-14T16:30:19.044Z,10.67
2019-04-14T16:34:28.488Z,10.77
2019-04-14T16:38:33.400Z,12.27
2019-04-14T16:42:38.324Z,14.13
2019-04-14T16:46:43.258Z,11.33
2019-04-14T16:50:48.295Z,11.40
2019-04-14T16:54:54.873Z,10.83
2019-04-14T16:59:01.418Z,10.43
2019-04-14T17:03:06.493Z,10.20
2019-04-14T17:07:11.379Z,10.90
2019-04-14T17:11:16.291Z,12.20
2019-04-14T17:15:36.004Z,11.67
2019-04-14T17:19:42.555Z,11.17
2019-04-14T17:23:57.872Z,12.07
2019-04-14T17:28:04.417Z,11.23
2019-04-14T17:32:22.752Z,11.40
2019-04-14T17:36:41.167Z,12.73
2019-04-14T17:40:50.384Z,11.97
2019-04-14T17:45:15.276Z,13.40
2019-04-14T17:49:27.910Z,13.37
2019-04-14T17:53:37.384Z,14.13
2019-04-14T17:57:59.226Z,13.70
2019-04-14T18:02:14.870Z,14.87
2019-04-14T18:06:24.351Z,13.87
2019-04-14T18:10:33.594Z,13.33
2019-04-14T18:14:40.151Z,12.50
2019-04-14T18:19:02.693Z,14.13
2019-04-14T18:23:07.588Z,12.20
2019-04-14T18:27:12.493Z,12.40
2019-04-14T18:31:21.970Z,11.37
2019-04-14T18:35:30.940Z,11.67
2019-04-14T18:39:50.006Z,10.73
2019-04-14T18:43:59.747Z,11.83
2019-04-14T18:48:22.733Z,11.63
2019-04-14T18:52:35.530Z,11.27
2019-04-14T18:56:42.076Z,10.90
2019-04-14T19:00:54.762Z,10.10
2019-04-14T19:04:59.670Z,10.30
2019-04-14T19:09:06.707Z,9.40
2019-04-14T19:13:14.862Z,14.90
2019-04-14T19:17:30.432Z,7.97
2019-04-14T19:21:35.292Z,7.20
2019-04-14T19:25:40.191Z,8.27
2019-04-14T19:29:45.096Z,8.47
2019-04-14T19:33:49.994Z,8.10
2019-04-14T19:37:54.893Z,8.00
2019-04-14T19:41:59.797Z,7.30
2019-04-14T19:46:04.764Z,7.83
2019-04-14T19:50:10.096Z,8.23
2019-04-14T19:54:14.996Z,6.70
2019-04-14T19:58:19.887Z,6.77
2019-04-14T20:02:24.779Z,7.40
2019-04-14T20:06:29.672Z,7.13
2019-04-14T20:10:34.664Z,8.43
2019-04-14T20:14:39.559Z,6.90
2019-04-14T20:19:10.284Z,6.20
2019-04-14T20:23:16.269Z,6.67
2019-04-14T20:27:22.859Z,5.90
2019-04-14T20:31:38.253Z,6.57
2019-04-14T20:35:43.148Z,5.97
2019-04-14T20:39:48.037Z,7.27
2019-04-14T20:43:52.944Z,6.73
2019-04-14T20:47:57.838Z,6.03
2019-04-14T20:52:02.813Z,5.13
2019-04-14T20:56:07.678Z,5.43
2019-04-14T21:00:13.112Z,5.23
2019-04-14T21:04:22.734Z,4.87
2019-04-14T21:08:44.621Z,5.20
2019-04-14T21:12:54.307Z,4.80
2019-04-14T21:17:06.798Z,4.03
2019-04-14T21:21:28.237Z,4.73
2019-04-14T21:26:00.259Z,4.70
2019-04-14T21:30:06.053Z,5.33
2019-04-14T21:34:12.600Z,5.40
2019-04-14T21:38:34.242Z,5.77
2019-04-14T21:42:40.008Z,4.90
2019-04-14T21:46:44.892Z,5.70
2019-04-14T21:50:49.788Z,4.90
2019-04-14T21:54:54.673Z,5.73
2019-04-14T21:59:03.952Z,5.40
2019-04-14T22:03:13.213Z,6.37
2019-04-14T22:07:19.744Z,6.73
2019-04-14T22:11:25.934Z,6.13
2019-04-14T22:15:30.851Z,6.57
2019-04-14T22:19:35.759Z,5.93
2019-04-14T22:23:40.673Z,6.10
2019-04-14T22:27:45.637Z,6.53
2019-04-14T22:31:50.539Z,5.60
2019-04-14T22:35:56.579Z,6.30
2019-04-14T22:40:01.572Z,6.37
2019-04-14T22:44:06.470Z,6.60
2019-04-14T22:48:11.358Z,6.30
2019-04-14T22:52:16.256Z,6.30
2019-04-14T22:56:21.159Z,8.27
2019-04-14T23:00:27.771Z,7.83
2019-04-14T23:04:41.572Z,8.60
2019-04-14T23:08:54.045Z,8.47
2019-04-14T23:13:12.796Z,10.00
2019-04-14T23:17:31.105Z,9.53
2019-04-14T23:21:43.724Z,9.40
2019-04-14T23:25:48.644Z,9.60
2019-04-14T23:29:53.556Z,9.60
2019-04-14T23:33:58.445Z,10.17
2019-04-14T23:38:03.354Z,10.43
2019-04-14T23:42:08.258Z,11.27
2019-04-14T23:46:13.164Z,10.50
2019-04-14T23:50:18.075Z,11.37
2019-04-14T23:54:22.977Z,10.93
2019-04-14T23:58:27.893Z,10.67
